Time;durP1;ratioP1;P1;durP2;ratioP2;P2;SDS_P1;SDS_P2;PMS_P1;PMS_P2;Temp;Humidity;BMP_temperature;BMP_pressure;BME280_temperature;BME280_humidity;BME280_pressure;Samples;Min_cycle;Max_cycle;Signal;HPM_P1;HPM_P2
2022/10/19 00:00:21;;;;;;;15.43;10.83;;;;;;;12.20;100.00;97253.50;5024469;28;20384;-76
2022/10/19 00:02:46;;;;;;;16.73;10.67;;;;;;;12.20;100.00;97248.22;5022135;28;20066;-76
2022/10/19 00:05:12;;;;;;;12.87;9.90;;;;;;;12.15;100.00;97258.38;5034213;28;20146;-76
2022/10/19 00:07:38;;;;;;;14.37;10.60;;;;;;;12.04;100.00;97256.75;5010005;28;20064;-76
2022/10/19 00:10:04;;;;;;;12.87;10.30;;;;;;;12.12;100.00;97256.03;5016572;28;20147;-76
2022/10/19 00:12:30;;;;;;;10.93;9.07;;;;;;;12.17;100.00;97259.06;5014929;28;20760;-76
2022/10/19 00:14:56;;;;;;;13.80;10.10;;;;;;;12.18;100.00;97251.00;5014630;28;21284;-76
2022/10/19 00:17:21;;;;;;;11.97;9.40;;;;;;;12.18;100.00;97258.09;5012945;28;20768;-76
2022/10/19 00:19:47;;;;;;;10.20;8.43;;;;;;;12.15;100.00;97255.75;5013507;28;20033;-76
2022/10/19 00:22:13;;;;;;;12.87;9.73;;;;;;;12.11;100.00;97252.56;5011127;28;20156;-76
2022/10/19 00:24:39;;;;;;;13.10;8.30;;;;;;;12.14;100.00;97254.06;5001378;28;20037;-76
2022/10/19 00:27:05;;;;;;;10.77;8.50;;;;;;;12.10;100.00;97250.06;5024141;28;20086;-77
2022/10/19 00:29:31;;;;;;;11.40;8.03;;;;;;;12.09;100.00;97251.88;5041813;28;20046;-76
2022/10/19 00:31:56;;;;;;;9.47;7.17;;;;;;;12.06;100.00;97244.25;5040484;28;20017;-76
2022/10/19 00:34:22;;;;;;;9.53;6.63;;;;;;;11.98;100.00;97252.88;5046465;28;20445;-76
2022/10/19 00:36:48;;;;;;;12.20;7.63;;;;;;;11.98;100.00;97244.97;5038675;28;20063;-76
2022/10/19 00:39:16;;;;;;;10.23;7.73;;;;;;;12.01;100.00;97247.31;5037655;28;20524;-76
2022/10/19 00:41:43;;;;;;;12.33;8.33;;;;;;;11.78;100.00;97245.97;5027503;28;20691;-77
2022/10/19 00:44:11;;;;;;;12.50;7.23;;;;;;;11.65;100.00;97254.16;5023443;28;20033;-76
2022/10/19 00:46:42;;;;;;;13.37;8.57;;;;;;;11.62;100.00;97253.59;5023229;28;20128;-76
2022/10/19 00:49:13;;;;;;;12.57;8.57;;;;;;;11.70;100.00;97256.34;5022488;28;20044;-76
2022/10/19 00:51:48;;;;;;;21.43;8.37;;;;;;;11.46;100.00;97269.97;5020782;28;20043;-77
2022/10/19 00:54:15;;;;;;;10.93;7.10;;;;;;;11.42;100.00;97268.59;5022884;28;21184;-76
2022/10/19 00:56:42;;;;;;;9.20;6.30;;;;;;;11.36;100.00;97271.78;5026001;28;20029;-76
2022/10/19 00:59:09;;;;;;;11.83;7.73;;;;;;;11.44;100.00;97264.03;5025029;28;20503;-76
2022/10/19 01:01:35;;;;;;;8.93;6.60;;;;;;;11.51;100.00;97262.50;5022204;28;20133;-76
2022/10/19 01:04:02;;;;;;;10.10;6.10;;;;;;;11.60;100.00;97271.34;4979366;28;20048;-76
2022/10/19 01:06:28;;;;;;;9.53;6.67;;;;;;;11.55;100.00;97267.34;4990751;28;20029;-76
2022/10/19 01:08:54;;;;;;;19.53;7.57;;;;;;;11.57;100.00;97262.78;4995829;28;20097;-76
2022/10/19 01:11:38;;;;;;;10.57;6.47;;;;;;;11.56;100.00;97265.53;5012632;28;20043;-76
2022/10/19 01:14:41;;;;;;;9.27;5.23;;;;;;;11.67;100.00;97262.75;5014525;28;20037;-76
2022/10/19 01:17:34;;;;;;;8.17;5.60;;;;;;;11.70;100.00;97264.25;5008033;28;20486;-76
2022/10/19 01:20:21;;;;;;;9.57;6.45;;;;;;;11.75;100.00;97264.69;5015759;28;20043;-76
2022/10/19 01:23:12;;;;;;;10.90;6.80;;;;;;;11.75;100.00;97267.31;5013241;28;20102;-76
2022/10/19 01:26:03;;;;;;;9.77;6.63;;;;;;;11.76;100.00;97261.91;5015163;28;20060;-78
2022/10/19 01:28:28;;;;;;;8.33;6.70;;;;;;;11.86;100.00;97261.91;5014577;28;20029;-75
2022/10/19 01:31:15;;;;;;;9.17;6.67;;;;;;;11.89;100.00;97255.53;5012557;28;20091;-77
2022/10/19 01:34:09;;;;;;;8.80;5.97;;;;;;;11.94;100.00;97267.31;5036379;28;20052;-76
2022/10/19 01:36:49;;;;;;;9.30;7.18;;;;;;;11.85;100.00;97262.06;5050543;28;20054;-76
2022/10/19 01:39:57;;;;;;;10.77;6.63;;;;;;;11.82;100.00;97260.50;5046379;28;20110;-76
2022/10/19 01:42:33;;;;;;;12.10;8.40;;;;;;;11.77;100.00;97257.47;5039514;28;20088;-76
2022/10/19 01:45:16;;;;;;;9.77;7.47;;;;;;;11.88;100.00;97248.59;5040764;28;20037;-76
2022/10/19 01:48:01;;;;;;;11.20;8.27;;;;;;;11.83;100.00;97251.63;5052988;28;20045;-76
2022/10/19 01:50:31;;;;;;;12.63;8.60;;;;;;;11.81;100.00;97248.31;5040330;28;20037;-76
2022/10/19 01:52:58;;;;;;;13.07;8.83;;;;;;;11.85;100.00;97240.97;5040578;28;20509;-77
2022/10/19 01:55:26;;;;;;;14.10;9.47;;;;;;;11.88;100.00;97244.16;5039560;28;20024;-76
2022/10/19 01:58:04;;;;;;;13.10;10.57;;;;;;;11.93;100.00;97241.91;5010188;28;20099;-76
2022/10/19 02:00:33;;;;;;;16.70;11.10;;;;;;;11.86;100.00;97234.72;5031393;28;20060;-75
2022/10/19 02:02:59;;;;;;;17.60;12.20;;;;;;;11.87;100.00;97239.88;5014655;28;20496;-75
2022/10/19 02:05:31;;;;;;;16.37;11.07;;;;;;;11.94;100.00;97240.97;5016416;28;20041;-76
2022/10/19 02:08:01;;;;;;;15.70;11.30;;;;;;;11.97;100.00;97235.41;4987112;28;20029;-76
2022/10/19 02:10:30;;;;;;;19.67;11.20;;;;;;;11.98;100.00;97231.78;4982906;28;20041;-76
2022/10/19 02:12:57;;;;;;;17.17;12.30;;;;;;;12.09;100.00;97235.22;4985264;28;20405;-75
2022/10/19 02:15:25;;;;;;;18.17;11.93;;;;;;;12.11;100.00;97228.00;4987221;28;20079;-76
2022/10/19 02:17:56;;;;;;;18.60;12.30;;;;;;;12.12;100.00;97219.13;4983964;28;20671;-76
2022/10/19 02:20:22;;;;;;;16.73;12.30;;;;;;;12.15;100.00;97218.84;4987363;28;20044;-76
2022/10/19 02:22:48;;;;;;;19.07;11.07;;;;;;;12.19;100.00;97214.91;4983044;28;20464;-75
2022/10/19 02:25:14;;;;;;;17.73;11.93;;;;;;;12.16;100.00;97216.03;4980995;28;20036;-76
2022/10/19 02:27:41;;;;;;;15.63;12.23;;;;;;;12.12;100.00;97213.84;4985115;28;20048;-75
2022/10/19 02:34:15;;;;;;;18.43;13.00;;;;;;;12.10;100.00;97197.31;4999176;28;20029;-75
2022/10/19 02:37:15;;;;;;;20.43;14.37;;;;;;;12.21;100.00;97191.88;5012352;28;20108;-75
2022/10/19 02:40:14;;;;;;;17.73;13.13;;;;;;;12.25;100.00;97190.59;5032830;28;20033;-76
2022/10/19 02:43:18;;;;;;;27.97;15.87;;;;;;;12.22;100.00;97191.72;5033663;28;20024;-75
2022/10/19 02:53:05;;;;;;;17.97;13.40;;;;;;;12.31;100.00;97184.75;5031002;28;20778;-76
2022/10/19 02:55:30;;;;;;;17.30;12.97;;;;;;;12.36;100.00;97182.50;5036766;28;20033;-75
2022/10/19 02:57:56;;;;;;;18.13;12.70;;;;;;;12.30;100.00;97183.06;5051583;28;20539;-76
2022/10/19 03:00:22;;;;;;;16.00;12.83;;;;;;;12.30;100.00;97180.44;5050269;28;20072;-76
2022/10/19 03:02:47;;;;;;;20.73;12.87;;;;;;;12.26;100.00;97179.06;5047242;28;20036;-76
2022/10/19 03:05:13;;;;;;;19.77;13.13;;;;;;;12.29;100.00;97173.50;5030202;28;20017;-77
2022/10/19 03:07:40;;;;;;;16.90;12.07;;;;;;;12.33;100.00;97174.88;5045812;28;20410;-75
2022/10/19 03:10:06;;;;;;;17.23;11.83;;;;;;;12.28;100.00;97177.13;5068391;28;20035;-75
2022/10/19 03:12:31;;;;;;;20.80;12.53;;;;;;;12.24;100.00;97171.31;5051130;28;20551;-75
2022/10/19 03:14:57;;;;;;;19.63;13.27;;;;;;;12.30;100.00;97172.53;5037938;28;20035;-76
2022/10/19 03:17:23;;;;;;;19.13;13.70;;;;;;;12.27;100.00;97173.66;5055963;28;20528;-75
2022/10/19 03:19:48;;;;;;;21.47;13.10;;;;;;;12.27;100.00;97164.91;5052191;28;20101;-76
2022/10/19 03:22:14;;;;;;;18.03;13.63;;;;;;;12.26;100.00;97173.78;5056493;28;20036;-76
2022/10/19 03:24:40;;;;;;;17.90;13.23;;;;;;;12.27;100.00;97172.81;5036578;28;20534;-76
2022/10/19 03:27:05;;;;;;;21.50;12.30;;;;;;;12.27;100.00;97172.81;4985718;28;20162;-75
2022/10/19 03:29:31;;;;;;;20.37;13.30;;;;;;;12.31;100.00;97170.72;4993731;28;20043;-75
2022/10/19 03:31:57;;;;;;;18.23;13.70;;;;;;;12.33;100.00;97163.50;4987778;28;20059;-75
2022/10/19 03:34:22;;;;;;;19.37;13.60;;;;;;;12.31;100.00;97166.28;4994400;28;20618;-76
2022/10/19 03:36:48;;;;;;;17.97;13.17;;;;;;;12.29;100.00;97162.13;4990947;28;20035;-75
2022/10/19 03:39:15;;;;;;;18.57;13.80;;;;;;;12.27;100.00;97167.53;4990946;28;20119;-75
2022/10/19 03:41:41;;;;;;;24.93;14.67;;;;;;;12.26;100.00;97168.53;4992934;28;20033;-76
2022/10/19 03:44:08;;;;;;;20.93;14.17;;;;;;;12.31;100.00;97165.44;4989054;28;20816;-75
2022/10/19 03:46:35;;;;;;;21.00;14.70;;;;;;;12.25;100.00;97172.16;4990636;28;20064;-75
2022/10/19 03:49:02;;;;;;;22.00;14.87;;;;;;;12.30;100.00;97166.41;4993059;28;20143;-76
2022/10/19 03:51:29;;;;;;;21.93;14.73;;;;;;;12.22;100.00;97167.16;4990436;28;20104;-76
2022/10/19 03:53:59;;;;;;;19.10;14.47;;;;;;;12.22;100.00;97164.53;4973683;28;20119;-75
2022/10/19 03:56:26;;;;;;;21.03;14.23;;;;;;;12.27;100.00;97168.41;5034693;28;20037;-75
2022/10/19 03:58:54;;;;;;;19.10;13.67;;;;;;;12.34;100.00;97157.22;5027669;28;20060;-75
2022/10/19 04:01:23;;;;;;;19.90;14.00;;;;;;;12.30;100.00;97153.22;5051587;28;20141;-76
2022/10/19 04:04:15;;;;;;;17.80;13.47;;;;;;;12.27;100.00;97162.25;5046210;28;20036;-75
2022/10/19 04:06:44;;;;;;;17.70;12.33;;;;;;;12.33;100.00;97163.50;5047031;28;20124;-75
2022/10/19 04:09:15;;;;;;;23.40;16.17;;;;;;;12.39;100.00;97168.19;5051815;28;20482;-74
2022/10/19 04:11:41;;;;;;;18.63;14.37;;;;;;;12.39;100.00;97169.00;5042755;28;20096;-75
2022/10/19 04:14:09;;;;;;;17.97;12.57;;;;;;;12.40;100.00;97164.56;5038622;28;20088;-77
2022/10/19 04:16:34;;;;;;;16.10;12.93;;;;;;;12.32;100.00;97170.56;5043098;28;20090;-76
2022/10/19 04:19:00;;;;;;;18.47;12.50;;;;;;;12.38;100.00;97161.25;5047195;28;20032;-76
2022/10/19 04:21:31;;;;;;;17.43;13.03;;;;;;;12.39;100.00;97158.47;5049914;28;20047;-76
2022/10/19 04:24:06;;;;;;;16.77;12.73;;;;;;;12.38;100.00;97162.09;5046857;28;20032;-76
2022/10/19 04:26:32;;;;;;;18.93;13.70;;;;;;;12.38;100.00;97151.53;5050459;28;20166;-77
2022/10/19 04:28:59;;;;;;;16.43;12.80;;;;;;;12.40;100.00;97162.75;5044654;28;20032;-75
2022/10/19 04:31:27;;;;;;;20.07;13.30;;;;;;;12.36;100.00;97161.38;5029647;28;20039;-77
2022/10/19 04:33:53;;;;;;;16.50;12.33;;;;;;;12.36;100.00;97164.03;5047728;28;20501;-77
2022/10/19 04:36:18;;;;;;;17.13;12.90;;;;;;;12.43;100.00;97162.44;5046454;28;20029;-77
2022/10/19 04:38:44;;;;;;;19.67;13.37;;;;;;;12.31;100.00;97157.53;5032150;28;20087;-76
2022/10/19 04:41:13;;;;;;;23.57;13.83;;;;;;;12.35;100.00;97157.09;5033212;28;20034;-76
2022/10/19 04:43:39;;;;;;;18.10;12.47;;;;;;;12.32;100.00;97162.66;5048887;28;20036;-76
2022/10/19 04:46:13;;;;;;;19.50;13.07;;;;;;;12.37;100.00;97160.41;5061175;28;20072;-76
2022/10/19 04:48:40;;;;;;;17.17;12.90;;;;;;;12.38;100.00;97162.09;5050978;28;20037;-77
2022/10/19 04:51:06;;;;;;;20.83;12.77;;;;;;;12.41;100.00;97169.69;5049370;28;20033;-77
2022/10/19 04:53:33;;;;;;;17.13;13.13;;;;;;;12.30;100.00;97172.53;5050140;28;20045;-77
2022/10/19 04:55:58;;;;;;;16.80;12.57;;;;;;;12.33;100.00;97158.22;5050136;28;20107;-76
2022/10/19 04:58:24;;;;;;;19.00;11.97;;;;;;;12.34;100.00;97171.28;5076890;28;20035;-77
2022/10/19 05:00:50;;;;;;;19.23;12.57;;;;;;;12.43;100.00;97172.19;5049136;28;20114;-78
2022/10/19 05:03:16;;;;;;;16.53;11.53;;;;;;;12.33;100.00;97174.88;5028236;28;20039;-77
2022/10/19 05:05:42;;;;;;;17.27;12.37;;;;;;;12.36;100.00;97168.47;5050598;28;20059;-77
2022/10/19 05:08:09;;;;;;;15.40;10.93;;;;;;;12.37;100.00;97170.13;5050059;28;20398;-77
2022/10/19 05:10:35;;;;;;;21.70;11.47;;;;;;;12.47;100.00;97170.91;5054176;28;20047;-77
2022/10/19 05:13:01;;;;;;;17.90;13.07;;;;;;;12.43;100.00;97167.72;5049395;28;20497;-77
2022/10/19 05:15:28;;;;;;;16.77;11.47;;;;;;;12.44;100.00;97169.41;5058610;28;20029;-76
2022/10/19 05:17:54;;;;;;;17.67;12.00;;;;;;;12.48;100.00;97168.13;5046065;28;20449;-77
2022/10/19 05:20:20;;;;;;;16.13;11.00;;;;;;;12.44;100.00;97166.78;5054247;28;20534;-77
2022/10/19 05:22:46;;;;;;;16.23;11.07;;;;;;;12.35;100.00;97172.94;5049662;28;20028;-77
2022/10/19 05:25:11;;;;;;;14.57;11.00;;;;;;;12.37;100.00;97168.31;5052710;28;20118;-77
2022/10/19 05:27:37;;;;;;;17.33;12.03;;;;;;;12.39;100.00;97161.09;5045952;28;20041;-77
2022/10/19 05:30:05;;;;;;;15.83;11.80;;;;;;;12.38;100.00;97167.34;5050647;28;20043;-77
2022/10/19 05:32:31;;;;;;;17.03;12.07;;;;;;;12.36;100.00;97164.03;5055047;28;20036;-77
2022/10/19 05:34:56;;;;;;;16.43;12.40;;;;;;;12.30;100.00;97166.41;5057322;28;20090;-77
2022/10/19 05:37:24;;;;;;;19.90;11.53;;;;;;;12.25;100.00;97166.88;5053418;28;20079;-77
2022/10/19 05:39:50;;;;;;;17.83;13.03;;;;;;;12.25;100.00;97175.59;5053543;28;20089;-78
2022/10/19 05:42:16;;;;;;;19.83;12.33;;;;;;;12.25;100.00;97172.97;5061998;28;20044;-77
2022/10/19 05:44:42;;;;;;;16.97;13.03;;;;;;;12.19;100.00;97170.09;5050282;28;20418;-77
2022/10/19 05:47:07;;;;;;;17.53;12.17;;;;;;;12.12;100.00;97180.38;5037832;28;20048;-76
2022/10/19 05:49:33;;;;;;;18.00;12.97;;;;;;;12.21;100.00;97178.69;5058399;28;20078;-77
2022/10/19 05:51:59;;;;;;;16.57;11.63;;;;;;;12.19;100.00;97175.38;5056215;28;20093;-77
2022/10/19 05:54:25;;;;;;;16.73;12.30;;;;;;;12.20;100.00;97175.19;5037128;28;20029;-77
2022/10/19 05:56:50;;;;;;;17.07;11.87;;;;;;;12.27;100.00;97175.44;5053334;28;20052;-77
2022/10/19 05:59:19;;;;;;;14.80;10.53;;;;;;;12.17;100.00;97164.97;5056994;28;20067;-77
2022/10/19 06:01:46;;;;;;;18.73;11.03;;;;;;;12.16;100.00;97171.19;5049841;28;20493;-77
2022/10/19 06:04:13;;;;;;;16.40;12.03;;;;;;;12.16;100.00;97162.47;5048822;28;20035;-77
2022/10/19 06:06:41;;;;;;;16.37;12.17;;;;;;;12.15;100.00;97163.47;5048165;28;20037;-77
2022/10/19 06:09:08;;;;;;;13.53;10.47;;;;;;;12.19;100.00;97164.81;5038556;28;20041;-77
2022/10/19 06:11:36;;;;;;;19.10;12.03;;;;;;;12.26;100.00;97168.53;5056050;28;20071;-77
2022/10/19 06:14:06;;;;;;;14.53;10.47;;;;;;;12.31;100.00;97161.00;5054466;28;20128;-76
2022/10/19 06:16:32;;;;;;;15.90;10.33;;;;;;;12.29;100.00;97162.13;5047939;28;20047;-76
2022/10/19 06:18:58;;;;;;;14.60;10.53;;;;;;;12.24;100.00;97157.31;5030034;28;20110;-76
2022/10/19 06:21:28;;;;;;;13.63;9.47;;;;;;;12.24;100.00;97154.69;5049944;28;20413;-76
2022/10/19 06:23:59;;;;;;;13.37;10.43;;;;;;;12.15;100.00;97155.53;5046942;28;20040;-76
2022/10/19 06:26:26;;;;;;;14.50;11.00;;;;;;;12.24;100.00;97149.41;5046516;28;20144;-76
2022/10/19 06:28:56;;;;;;;14.67;9.67;;;;;;;12.17;100.00;97153.56;5046727;28;20088;-76
2022/10/19 06:31:22;;;;;;;13.47;9.70;;;;;;;12.26;100.00;97147.44;5058478;28;20442;-76
2022/10/19 06:33:48;;;;;;;13.93;10.53;;;;;;;12.37;100.00;97144.56;5056582;28;20064;-76
2022/10/19 06:36:17;;;;;;;14.30;10.10;;;;;;;12.39;100.00;97141.81;5041119;28;20036;-76
2022/10/19 06:38:43;;;;;;;18.87;11.17;;;;;;;12.44;100.00;97142.16;5047958;28;20052;-77
2022/10/19 06:41:10;;;;;;;13.37;9.63;;;;;;;12.30;100.00;97148.78;5048262;28;20025;-76
2022/10/19 06:43:36;;;;;;;11.67;8.53;;;;;;;12.29;100.00;97151.59;5047091;28;20107;-77
2022/10/19 06:46:09;;;;;;;12.73;9.43;;;;;;;12.24;100.00;97155.50;5048889;28;20048;-77
2022/10/19 06:48:35;;;;;;;11.30;7.93;;;;;;;12.37;100.00;97160.41;5063959;28;20067;-77
2022/10/19 06:51:03;;;;;;;12.53;9.00;;;;;;;12.39;100.00;97158.47;5047717;28;20029;-76
2022/10/19 06:53:30;;;;;;;12.07;9.30;;;;;;;12.42;100.00;97166.06;5049236;28;20490;-76
2022/10/19 06:56:00;;;;;;;12.87;9.60;;;;;;;12.50;100.00;97160.88;5043797;28;20029;-77
2022/10/19 06:58:26;;;;;;;13.70;8.93;;;;;;;12.64;100.00;97158.72;5035927;28;20029;-77
2022/10/19 07:00:59;;;;;;;12.50;8.77;;;;;;;12.76;100.00;97162.81;5035864;28;20452;-76
2022/10/19 07:03:26;;;;;;;12.67;9.80;;;;;;;12.84;100.00;97162.88;5012501;28;21103;-76
2022/10/19 07:05:56;;;;;;;14.60;10.83;;;;;;;12.87;100.00;97167.84;5030333;28;20836;-77
2022/10/19 07:08:23;;;;;;;12.40;9.70;;;;;;;12.89;100.00;97160.63;5040828;28;20134;-77
2022/10/19 07:10:53;;;;;;;13.20;9.50;;;;;;;12.79;100.00;97157.22;5041093;28;20183;-77
2022/10/19 07:13:20;;;;;;;13.10;9.30;;;;;;;13.05;100.00;97161.75;5035568;28;20538;-77
2022/10/19 07:15:46;;;;;;;12.37;9.30;;;;;;;13.08;100.00;97153.53;5023142;28;20098;-77
2022/10/19 07:18:12;;;;;;;10.97;8.10;;;;;;;13.17;100.00;97161.34;5039248;28;20036;-76
2022/10/19 07:20:38;;;;;;;11.13;8.40;;;;;;;13.26;100.00;97151.72;5039796;28;20452;-76
2022/10/19 07:23:04;;;;;;;12.37;9.37;;;;;;;13.32;100.00;97160.84;5040910;28;20032;-78
2022/10/19 07:25:30;;;;;;;12.27;9.07;;;;;;;13.33;100.00;97154.56;5041765;28;20033;-78
2022/10/19 07:27:56;;;;;;;12.83;8.60;;;;;;;13.37;100.00;97154.09;5026291;28;20656;-77
2022/10/19 07:30:22;;;;;;;14.03;8.97;;;;;;;13.37;100.00;97158.56;5028779;28;20391;-77
2022/10/19 07:32:47;;;;;;;12.93;8.40;;;;;;;13.43;100.00;97158.78;5018815;28;20033;-77
2022/10/19 07:35:14;;;;;;;14.07;9.80;;;;;;;13.06;100.00;97158.13;5019471;28;20528;-78
2022/10/19 07:37:40;;;;;;;15.00;9.90;;;;;;;13.51;100.00;97151.88;5019040;28;20029;-77
2022/10/19 07:40:06;;;;;;;14.23;10.27;;;;;;;13.46;100.00;97159.47;5018136;28;20114;-77
2022/10/19 07:42:32;;;;;;;12.37;8.93;;;;;;;13.55;100.00;97156.72;5019702;28;20036;-77
2022/10/19 07:44:57;;;;;;;12.07;8.13;;;;;;;13.57;100.00;97152.09;5018626;28;20533;-77
2022/10/19 07:47:23;;;;;;;11.43;7.87;;;;;;;13.82;100.00;97146.97;5020299;28;20477;-77
2022/10/19 07:49:49;;;;;;;11.27;8.20;;;;;;;13.75;100.00;97143.28;5003685;28;20025;-77
2022/10/19 07:52:15;;;;;;;12.23;8.27;;;;;;;13.85;100.00;97146.66;5020444;28;20132;-77
2022/10/19 07:54:41;;;;;;;10.93;8.03;;;;;;;13.94;100.00;97140.41;5003048;28;20033;-77
2022/10/19 07:57:07;;;;;;;10.13;7.10;;;;;;;13.89;100.00;97153.28;5029156;28;20062;-78
2022/10/19 07:59:33;;;;;;;12.55;7.40;;;;;;;13.87;100.00;97139.38;5006059;28;20045;-77
2022/10/19 08:02:01;;;;;;;10.73;7.73;;;;;;;13.67;100.00;97138.78;5005657;28;20036;-77
2022/10/19 08:04:27;;;;;;;9.87;6.90;;;;;;;14.00;100.00;97136.31;5021305;28;20101;-77
2022/10/19 08:06:52;;;;;;;12.40;7.67;;;;;;;14.19;100.00;97124.66;5020100;28;20066;-77
2022/10/19 08:09:18;;;;;;;9.93;6.60;;;;;;;14.16;100.00;97131.09;5013801;28;20536;-77
2022/10/19 08:11:44;;;;;;;10.90;7.28;;;;;;;14.48;100.00;97132.19;5015115;28;20059;-78
2022/10/19 08:14:09;;;;;;;9.53;6.20;;;;;;;14.61;100.00;97127.28;5019206;28;20028;-78
2022/10/19 08:16:39;;;;;;;9.85;6.40;;;;;;;15.02;100.00;97122.88;5021687;28;20109;-78
2022/10/19 08:19:15;;;;;;;9.20;5.97;;;;;;;14.93;100.00;97123.03;5008932;28;20151;-78
2022/10/19 08:21:44;;;;;;;9.75;6.53;;;;;;;14.44;100.00;97130.84;5029946;28;20509;-78
2022/10/19 08:24:12;;;;;;;9.90;7.18;;;;;;;14.04;100.00;97148.22;5025585;28;20033;-77
2022/10/19 08:26:39;;;;;;;11.43;6.57;;;;;;;14.68;100.00;97138.88;5023715;28;20119;-78
2022/10/19 08:29:07;;;;;;;11.82;7.07;;;;;;;14.74;100.00;97142.69;5040420;28;20024;-77
2022/10/19 08:31:33;;;;;;;10.23;6.82;;;;;;;14.68;100.00;97138.03;5041645;28;20041;-77
2022/10/19 08:33:59;;;;;;;9.68;6.28;;;;;;;15.26;100.00;97137.13;5041303;28;20040;-77
2022/10/19 08:36:25;;;;;;;10.80;6.22;;;;;;;15.36;100.00;97131.63;5044841;28;20051;-77
2022/10/19 08:38:51;;;;;;;10.52;6.75;;;;;;;15.46;100.00;97125.16;5055385;28;20088;-77
2022/10/19 08:41:32;;;;;;;9.02;6.53;;;;;;;15.53;100.00;97133.28;5041872;28;20043;-78
2022/10/19 08:44:17;;;;;;;9.38;6.60;;;;;;;15.59;100.00;97116.66;5057813;28;20478;-77
2022/10/19 08:46:42;;;;;;;13.15;7.72;;;;;;;15.26;100.00;97124.69;5054799;28;20163;-78
2022/10/19 08:49:14;;;;;;;11.35;7.78;;;;;;;16.01;100.00;97108.47;5035964;28;20049;-78
2022/10/19 08:51:43;;;;;;;10.68;7.75;;;;;;;16.31;100.00;97099.88;5043528;28;20044;-77
2022/10/19 08:54:15;;;;;;;10.18;8.13;;;;;;;16.89;100.00;97095.88;5039972;28;20116;-77
2022/10/19 08:57:10;;;;;;;11.40;7.65;;;;;;;16.78;100.00;97104.28;5056426;28;20029;-78
2022/10/19 08:59:48;;;;;;;10.27;7.85;;;;;;;16.65;100.00;97103.00;5014908;28;20139;-78
2022/10/19 09:02:33;;;;;;;10.27;6.80;;;;;;;16.42;100.00;97100.31;5016795;28;20968;-77
2022/10/19 09:05:04;;;;;;;11.50;6.45;;;;;;;16.97;100.00;97095.84;5016313;28;20112;-78
2022/10/19 09:07:36;;;;;;;9.23;6.20;;;;;;;16.73;100.00;97100.28;5016747;28;20087;-78
2022/10/19 09:10:17;;;;;;;9.68;6.05;;;;;;;16.29;100.00;97102.69;5014302;28;20039;-78
2022/10/19 09:12:46;;;;;;;8.68;5.97;;;;;;;16.64;100.00;97100.53;5028669;28;20049;-76
2022/10/19 09:15:16;;;;;;;9.30;6.30;;;;;;;16.29;100.00;97100.03;5013510;28;20082;-79
2022/10/19 09:17:42;;;;;;;7.88;5.45;;;;;;;16.26;100.00;97101.25;5028329;28;20025;-77
2022/10/19 09:20:25;;;;;;;8.48;6.47;;;;;;;16.40;100.00;97106.81;5012746;28;20142;-77
2022/10/19 09:23:17;;;;;;;10.60;5.15;;;;;;;16.58;100.00;97112.66;5014403;28;20071;-77
2022/10/19 09:25:43;;;;;;;7.97;5.22;;;;;;;16.84;100.00;97103.56;5018087;28;20052;-78
2022/10/19 09:28:27;;;;;;;8.98;6.43;;;;;;;16.44;100.00;97110.75;5014205;28;20024;-77
2022/10/19 09:30:55;;;;;;;7.47;5.63;;;;;;;16.64;100.00;97103.19;5033449;28;20041;-77
2022/10/19 09:33:30;;;;;;;7.15;5.30;;;;;;;16.29;100.00;97108.00;5017771;28;20104;-77
2022/10/19 09:35:58;;;;;;;9.05;5.22;;;;;;;15.90;100.00;97114.16;5012508;28;21356;-78
2022/10/19 09:38:27;;;;;;;12.82;6.25;;;;;;;16.00;100.00;97114.78;5016351;28;20398;-78
2022/10/19 09:40:55;;;;;;;7.20;5.32;;;;;;;15.92;100.00;97101.53;5016940;28;20048;-78
2022/10/19 09:43:21;;;;;;;8.73;5.60;;;;;;;15.94;100.00;97104.03;5014180;28;21330;-77
2022/10/19 09:46:03;;;;;;;8.60;4.97;;;;;;;15.83;100.00;97096.41;5015432;28;20037;-77
2022/10/19 09:48:44;;;;;;;10.38;4.78;;;;;;;16.59;100.00;97089.59;5013526;28;20033;-78
2022/10/19 09:51:12;;;;;;;7.03;4.88;;;;;;;17.40;100.00;97086.31;5018522;28;20033;-77
2022/10/19 09:53:48;;;;;;;11.10;5.70;;;;;;;17.28;100.00;97090.41;5017395;28;21226;-78
2022/10/19 09:56:24;;;;;;;10.23;5.10;;;;;;;18.84;100.00;97073.38;5018066;28;20033;-79
2022/10/19 09:58:57;;;;;;;6.75;4.20;;;;;;;19.18;100.00;97079.84;5042330;28;20021;-78
2022/10/19 10:01:36;;;;;;;6.22;4.18;;;;;;;19.45;100.00;97078.19;5040313;28;20040;-78
2022/10/19 10:04:13;;;;;;;6.35;3.55;;;;;;;20.58;100.00;97060.09;5041330;28;20033;-78
2022/10/19 10:06:40;;;;;;;5.82;3.40;;;;;;;21.24;100.00;97060.19;5048499;28;20033;-78
2022/10/19 10:09:06;;;;;;;8.25;3.53;;;;;;;21.48;100.00;97060.59;5040860;28;20052;-77
2022/10/19 10:11:37;;;;;;;6.47;3.65;;;;;;;21.20;100.00;97058.94;5057071;28;20108;-77
2022/10/19 10:14:19;;;;;;;6.65;3.55;;;;;;;21.73;100.00;97055.41;5036331;28;20525;-77
2022/10/19 10:16:45;;;;;;;5.53;3.40;;;;;;;22.63;100.00;97047.44;5043265;28;20088;-76
2022/10/19 10:19:14;;;;;;;6.20;3.70;;;;;;;22.19;100.00;97046.44;5050142;28;20020;-77
2022/10/19 10:21:48;;;;;;;5.63;3.38;;;;;;;22.45;100.00;97048.97;5047042;28;20041;-78
2022/10/19 10:24:17;;;;;;;7.70;3.97;;;;;;;22.31;100.00;97047.41;5030025;28;20029;-77
2022/10/19 10:26:49;;;;;;;8.98;3.38;;;;;;;22.63;100.00;97034.03;5047679;28;20036;-77
2022/10/19 10:29:27;;;;;;;4.03;2.67;;;;;;;21.41;100.00;97042.69;4981712;28;20040;-77
2022/10/19 10:32:17;;;;;;;6.15;3.80;;;;;;;19.56;100.00;97056.34;4983617;28;20051;-77
2022/10/19 10:34:47;;;;;;;6.20;3.47;;;;;;;19.74;100.00;97048.66;4986289;28;20043;-77
2022/10/19 10:37:19;;;;;;;6.30;3.17;;;;;;;19.30;100.00;97052.44;4984582;28;22064;-77
2022/10/19 10:39:44;;;;;;;5.53;3.45;;;;;;;18.36;100.00;97049.94;4983031;28;20045;-77
2022/10/19 10:42:18;;;;;;;7.60;3.10;;;;;;;18.71;100.00;97041.25;4979953;28;20025;-77
2022/10/19 10:44:49;;;;;;;7.03;4.00;;;;;;;19.73;100.00;97039.00;4974008;28;20124;-77
2022/10/19 10:47:19;;;;;;;6.93;3.20;;;;;;;19.52;100.00;97034.56;4900983;28;20043;-77
2022/10/19 10:50:04;;;;;;;4.43;3.35;;;;;;;19.93;100.00;97028.44;4836648;28;20512;-77
2022/10/19 10:52:30;;;;;;;6.00;3.47;;;;;;;20.19;100.00;97022.38;4805609;28;20040;-77
2022/10/19 10:55:00;;;;;;;8.55;4.10;;;;;;;19.44;100.00;97026.69;4787743;28;20041;-77
2022/10/19 10:57:31;;;;;;;7.43;3.58;;;;;;;19.62;100.00;97022.72;4815380;28;21986;-76
2022/10/19 11:00:15;;;;;;;5.18;3.25;;;;;;;19.70;100.00;97019.91;4858436;28;21234;-76
2022/10/19 11:02:57;;;;;;;8.80;3.45;;;;;;;19.05;100.00;97020.06;4859831;28;20037;-77
2022/10/19 11:05:25;;;;;;;4.85;3.10;;;;;;;18.93;100.00;97018.94;4864901;28;20049;-77
2022/10/19 11:08:11;;;;;;;6.28;3.10;;;;;;;19.67;100.00;97009.63;4865241;28;20033;-77
2022/10/19 11:11:12;;;;;;;7.72;3.05;;;;;;;20.26;100.00;96998.34;4851733;28;20053;-76
2022/10/19 11:14:17;;;;;;;8.13;2.85;;;;;;;20.88;100.00;97002.56;4863840;28;20051;-77
2022/10/19 11:16:43;;;;;;;6.10;3.20;;;;;;;;;;4988590;28;20036;-77
2022/10/19 11:19:23;;;;;;;8.77;5.78;;;;;;;21.18;100.00;96991.44;5029752;28;20420;-77
2022/10/19 11:22:10;;;;;;;6.80;3.75;;;;;;;19.60;100.00;97006.06;5033191;28;20045;-78
2022/10/19 11:24:47;;;;;;;5.18;3.70;;;;;;;19.15;100.00;97006.41;5052582;28;20593;-80
2022/10/19 11:27:24;;;;;;;9.02;4.30;;;;;;;18.56;100.00;97002.19;5060488;28;20044;-80
2022/10/19 11:30:14;;;;;;;5.80;3.70;;;;;;;17.94;100.00;96997.44;5062912;28;20043;-79
2022/10/19 11:33:01;;;;;;;6.15;3.60;;;;;;;17.88;100.00;97008.84;5049351;28;20075;-79
2022/10/19 11:35:29;;;;;;;11.98;3.22;;;;;;;17.90;100.00;97001.47;5058565;28;20055;-80
2022/10/19 11:38:01;;;;;;;7.38;3.67;;;;;;;17.82;100.00;96997.09;5058700;28;20460;-79
2022/10/19 11:40:42;;;;;;;5.13;3.45;;;;;;;17.86;100.00;96997.53;5064729;28;20033;-79
2022/10/19 11:43:37;;;;;;;5.60;3.45;;;;;;;17.83;100.00;96993.41;5065614;28;20039;-79